Time;durP1;ratioP1;P1;durP2;ratioP2;P2;SDS_P1;SDS_P2;PMS_P1;PMS_P2;Temp;Humidity;BMP_temperature;BMP_pressure;BME280_temperature;BME280_humidity;BME280_pressure;Samples;Min_cycle;Max_cycle;Signal;HPM_P1;HPM_P2
2022/06/02 00:01:05;;;;;;;15.07;9.05;;;;;;;20.83;67.75;101264.72;4944452;29;20118;-87
2022/06/02 00:03:36;;;;;;;12.98;8.68;;;;;;;20.66;67.64;101250.34;4954336;29;20062;-88
2022/06/02 00:06:27;;;;;;;12.18;8.65;;;;;;;20.78;67.88;101272.16;4938031;29;20085;-89
2022/06/02 00:08:56;;;;;;;15.25;8.90;;;;;;;20.75;67.95;101264.53;4953662;28;20039;-89
2022/06/02 00:11:33;;;;;;;15.30;8.85;;;;;;;20.72;67.96;101259.50;4953902;29;20031;-90
2022/06/02 00:14:10;;;;;;;15.00;9.32;;;;;;;20.69;68.06;101257.13;4953787;28;20134;-88
2022/06/02 00:17:01;;;;;;;15.45;10.05;;;;;;;20.49;68.35;101264.00;4953955;29;20031;-89
2022/06/02 00:19:51;;;;;;;13.07;9.05;;;;;;;20.42;68.89;101261.00;4938372;29;20031;-88
2022/06/02 00:22:32;;;;;;;17.27;9.40;;;;;;;20.36;68.81;101260.69;4953716;29;20093;-88
2022/06/02 00:25:35;;;;;;;16.80;9.80;;;;;;;20.43;68.75;101259.25;4955004;28;20090;-88
2022/06/02 00:28:13;;;;;;;18.60;9.93;;;;;;;20.44;68.94;101266.16;4936459;29;20046;-89
2022/06/02 00:30:57;;;;;;;12.70;8.85;;;;;;;20.32;68.87;101250.38;4950931;29;20079;-89
2022/06/02 00:33:52;;;;;;;14.82;9.82;;;;;;;20.43;68.65;101277.63;4940096;29;20066;-89
2022/06/02 00:36:21;;;;;;;17.73;10.05;;;;;;;20.24;68.48;101255.41;4953997;28;20095;-88
2022/06/02 00:38:47;;;;;;;18.77;9.85;;;;;;;20.39;68.63;101279.66;4921327;29;20047;-88
2022/06/02 00:41:21;;;;;;;15.75;9.95;;;;;;;20.32;68.41;101278.47;4953503;29;20486;-89
2022/06/02 00:43:50;;;;;;;14.98;9.85;;;;;;;20.29;68.56;101289.22;4937681;29;20031;-90
2022/06/02 00:46:25;;;;;;;17.02;10.40;;;;;;;20.28;68.71;101287.56;4954104;28;20102;-88
2022/06/02 00:49:00;;;;;;;16.52;10.10;;;;;;;20.13;68.77;101273.00;4953091;29;20524;-88
2022/06/02 00:52:00;;;;;;;17.40;9.65;;;;;;;20.21;69.04;101287.19;4921494;29;20066;-88
2022/06/02 00:57:37;;;;;;;16.30;9.90;;;;;;;20.21;69.16;101286.34;4953031;28;20030;-89
2022/06/02 01:00:12;;;;;;;15.52;9.68;;;;;;;20.16;68.87;101273.59;4953024;28;20031;-89
2022/06/02 01:03:07;;;;;;;16.58;10.50;;;;;;;19.99;69.49;101267.03;4954012;28;20023;-89
2022/06/02 01:05:58;;;;;;;14.75;9.88;;;;;;;19.93;69.73;101277.19;4952757;29;20045;-86
2022/06/02 01:08:42;;;;;;;16.75;10.07;;;;;;;19.88;70.30;101274.91;4953133;28;20047;-89
2022/06/02 01:11:30;;;;;;;20.20;10.48;;;;;;;19.93;70.47;101282.44;4952898;28;20031;-89
2022/06/02 01:14:07;;;;;;;18.35;10.23;;;;;;;19.91;70.17;101273.84;4952660;28;20035;-89
2022/06/02 01:16:40;;;;;;;19.23;10.82;;;;;;;20.00;69.91;101278.38;4953984;28;20031;-88
2022/06/02 01:19:21;;;;;;;15.32;10.60;;;;;;;20.07;69.53;101274.31;4921420;29;20090;-89
2022/06/02 01:22:07;;;;;;;17.90;10.32;;;;;;;19.95;69.58;101277.88;4953580;28;20027;-88
2022/06/02 01:25:02;;;;;;;16.42;10.10;;;;;;;19.95;69.71;101296.28;4938538;29;20031;-89
2022/06/02 01:27:55;;;;;;;18.20;10.60;;;;;;;19.91;69.99;101290.44;4952699;29;20043;-88
2022/06/02 01:30:48;;;;;;;16.88;10.43;;;;;;;19.79;70.06;101301.06;4952472;28;20078;-90
2022/06/02 01:33:35;;;;;;;18.50;10.65;;;;;;;19.75;70.31;101300.44;4939118;29;20031;-89
2022/06/02 01:36:09;;;;;;;21.42;11.07;;;;;;;19.63;70.43;101291.72;4936340;29;20118;-89
2022/06/02 01:38:35;;;;;;;17.80;10.00;;;;;;;19.36;70.50;101267.53;4936375;29;20043;-91
2022/06/02 01:41:22;;;;;;;15.63;10.88;;;;;;;19.53;70.38;101305.63;4952455;28;20031;-88
2022/06/02 01:44:33;;;;;;;19.65;10.95;;;;;;;19.45;70.61;101303.56;4953807;28;20077;-89
2022/06/02 01:47:04;;;;;;;18.30;10.70;;;;;;;19.48;70.73;101298.13;4931589;29;20027;-88
2022/06/02 01:49:39;;;;;;;18.52;11.10;;;;;;;19.49;70.42;101298.00;4915525;29;20432;-89
2022/06/02 01:52:25;;;;;;;20.27;10.77;;;;;;;19.46;70.72;101279.00;4927290;29;20122;-90
2022/06/02 01:55:02;;;;;;;21.52;11.07;;;;;;;19.50;70.47;101293.56;4952075;28;20038;-89
2022/06/02 01:57:58;;;;;;;18.23;11.18;;;;;;;19.45;70.97;101298.31;4953294;28;20031;-89
2022/06/02 02:00:26;;;;;;;20.05;10.50;;;;;;;19.31;70.89;101269.69;4952007;28;20046;-88
2022/06/02 02:03:10;;;;;;;18.90;11.35;;;;;;;19.48;71.10;101292.88;4936068;29;20031;-88
2022/06/02 02:05:50;;;;;;;19.48;11.13;;;;;;;19.48;70.95;101279.75;4952842;28;20054;-89
2022/06/02 02:08:22;;;;;;;19.10;10.52;;;;;;;19.47;70.97;101286.78;4920606;29;20070;-89
2022/06/02 02:10:51;;;;;;;;;;;;;;;19.46;71.27;101282.47;4953539;28;20023;-89
2022/06/02 02:13:39;;;;;;;20.20;11.13;;;;;;;19.37;71.42;101277.06;4953128;29;19914;-89
2022/06/02 02:16:35;;;;;;;20.38;11.27;;;;;;;19.32;71.90;101281.84;4951783;29;20033;-89
2022/06/02 02:19:09;;;;;;;16.83;10.70;;;;;;;19.33;71.47;101273.03;4920286;29;20035;-88
2022/06/02 02:21:57;;;;;;;22.90;10.93;;;;;;;19.44;71.30;101291.41;4952909;28;20082;-88
2022/06/02 02:24:59;;;;;;;17.38;10.95;;;;;;;19.39;71.34;101288.31;4951711;28;20038;-88
2022/06/02 02:28:02;;;;;;;17.77;10.82;;;;;;;19.39;70.90;101288.31;4951514;28;20027;-88
2022/06/02 02:30:39;;;;;;;27.40;12.00;;;;;;;19.46;70.59;101281.63;4951965;29;20037;-88
2022/06/02 02:33:35;;;;;;;26.35;11.73;;;;;;;19.38;71.38;101284.84;4951373;29;20038;-89
2022/06/02 02:36:13;;;;;;;20.80;10.35;;;;;;;19.19;71.14;101256.53;4951409;28;20086;-88
2022/06/02 02:38:50;;;;;;;20.02;11.00;;;;;;;19.38;71.13;101281.41;4952967;28;20051;-90
2022/06/02 02:41:39;;;;;;;20.27;11.00;;;;;;;19.27;71.06;101268.22;4952842;28;20058;-89
2022/06/02 02:44:23;;;;;;;18.25;11.07;;;;;;;19.30;71.14;101286.38;4937295;29;20043;-90
2022/06/02 02:46:59;;;;;;;19.77;11.25;;;;;;;19.27;71.34;101291.84;4936241;29;20027;-88
2022/06/02 02:49:59;;;;;;;24.02;11.35;;;;;;;19.22;71.22;101289.56;4935326;29;20039;-88
2022/06/02 02:52:46;;;;;;;22.08;11.50;;;;;;;19.10;71.43;101278.22;4922932;29;20129;-88
2022/06/02 02:55:23;;;;;;;23.75;11.15;;;;;;;19.18;71.42;101285.50;4951763;29;20034;-87
2022/06/02 02:57:58;;;;;;;21.05;11.60;;;;;;;19.19;71.42;101293.25;4951262;29;20024;-88
2022/06/02 03:00:39;;;;;;;21.33;12.65;;;;;;;19.10;71.27;101287.88;4951379;28;20547;-88
2022/06/02 03:03:15;;;;;;;25.10;12.40;;;;;;;18.95;71.46;101287.19;4936582;29;20027;-88
2022/06/02 03:05:47;;;;;;;16.58;10.48;;;;;;;19.14;71.65;101282.25;4935976;29;20062;-86
2022/06/02 03:08:18;;;;;;;20.87;10.83;;;;;;;19.54;68.73;101250.38;4951133;28;20448;-86
2022/06/02 03:10:43;;;;;;;20.05;10.48;;;;;;;19.98;67.86;101288.19;4935418;29;20122;-86
2022/06/02 03:13:27;;;;;;;16.83;10.70;;;;;;;19.78;68.86;101281.84;4919350;29;20494;-86
2022/06/02 03:15:57;;;;;;;20.05;11.68;;;;;;;19.58;69.54;101283.38;4951452;29;20031;-86
2022/06/02 03:19:03;;;;;;;24.35;12.13;;;;;;;19.54;69.63;101287.13;4935370;29;20023;-87
2022/06/02 03:21:55;;;;;;;59.22;13.48;;;;;;;19.46;70.38;101290.34;4904316;29;20039;-86
2022/06/02 03:24:30;;;;;;;;;;;;;;;19.50;70.00;101304.06;4925038;29;20038;-87
2022/06/02 03:27:10;;;;;;;19.88;11.55;;;;;;;19.40;70.21;101300.47;4955734;29;19968;-87
2022/06/02 03:30:08;;;;;;;23.50;12.90;;;;;;;19.22;70.42;101296.59;4924239;28;20488;-88
2022/06/02 03:33:08;;;;;;;21.17;11.90;;;;;;;19.25;70.79;101310.31;4953061;29;20059;-87
2022/06/02 03:35:40;;;;;;;21.50;12.00;;;;;;;19.18;70.74;101296.84;4969939;28;20086;-87
2022/06/02 03:38:18;;;;;;;25.85;12.45;;;;;;;19.29;71.12;101309.16;4969933;28;20055;-87
2022/06/02 03:40:54;;;;;;;20.30;11.65;;;;;;;19.45;70.02;101288.66;4953664;28;20040;-87
2022/06/02 03:43:34;;;;;;;22.55;11.93;;;;;;;19.66;69.92;101309.00;4970388;28;20034;-86
2022/06/02 03:46:21;;;;;;;23.30;12.95;;;;;;;19.58;70.03;101306.16;4969301;28;20519;-87
2022/06/02 03:49:05;;;;;;;19.42;11.73;;;;;;;19.61;70.30;101300.66;4953987;28;20042;-86
2022/06/02 03:51:33;;;;;;;23.98;13.18;;;;;;;19.73;69.94;101300.56;4953995;28;20038;-86
2022/06/02 03:54:11;;;;;;;20.35;12.10;;;;;;;20.18;69.04;101290.06;4953438;28;20476;-85
2022/06/02 03:56:39;;;;;;;23.88;12.55;;;;;;;20.53;68.69;101303.06;4955117;28;20158;-85
2022/06/02 03:59:13;;;;;;;19.80;11.65;;;;;;;20.82;66.80;101294.59;4954899;28;20489;-85
2022/06/02 04:01:40;;;;;;;20.85;11.70;;;;;;;21.23;65.59;101306.97;4954580;28;20051;-86
2022/06/02 04:04:23;;;;;;;21.67;12.45;;;;;;;21.99;62.79;101305.81;4923733;29;20086;-85
2022/06/02 04:07:01;;;;;;;27.95;16.48;;;;;;;21.70;63.53;101296.94;4953076;29;20034;-84
2022/06/02 04:09:34;;;;;;;22.20;14.10;;;;;;;21.45;64.24;101296.38;4953614;28;20038;-88
2022/06/02 04:15:11;;;;;;;24.05;15.20;;;;;;;21.51;64.35;101299.44;4954247;29;20062;-88
2022/06/02 04:17:39;;;;;;;25.43;14.77;;;;;;;21.81;63.20;101291.56;4954692;28;20473;-88
2022/06/02 04:20:36;;;;;;;26.02;15.57;;;;;;;21.83;63.51;101305.47;4953372;29;20065;-88
2022/06/02 04:23:33;;;;;;;23.25;13.93;;;;;;;22.26;62.15;101296.50;4952864;28;20079;-92
2022/06/02 04:26:15;;;;;;;34.47;14.57;;;;;;;21.89;63.41;101288.28;4937428;28;20441;-91
2022/06/02 04:29:04;;;;;;;24.05;14.57;;;;;;;21.66;64.35;101309.53;4940673;28;20062;-90
2022/06/02 04:31:36;;;;;;;26.70;14.85;;;;;;;21.30;64.99;101266.06;4944595;28;20113;-92
2022/06/02 04:34:12;;;;;;;25.02;15.52;;;;;;;21.54;64.79;101312.38;4953491;28;20086;-89
2022/06/02 04:37:22;;;;;;;23.05;14.15;;;;;;;21.58;64.35;101290.09;4938207;29;20090;-93
2022/06/02 04:40:13;;;;;;;30.58;16.85;;;;;;;21.71;64.00;101290.69;4905669;29;20053;-88
2022/06/02 04:42:59;;;;;;;26.02;14.85;;;;;;;21.97;63.64;101315.66;4936453;29;20032;-91
2022/06/02 04:45:37;;;;;;;24.45;14.38;;;;;;;21.84;63.95;101298.41;4955818;29;20084;-93
2022/06/02 04:48:08;;;;;;;24.20;14.85;;;;;;;21.81;64.45;101317.09;4954788;28;20066;-91
2022/06/02 04:50:42;;;;;;;23.77;14.93;;;;;;;21.70;64.77;101325.91;4953126;28;20468;-92
2022/06/02 04:53:22;;;;;;;23.23;15.80;;;;;;;21.71;64.67;101293.34;4952433;28;20509;-88
2022/06/02 04:56:12;;;;;;;25.23;16.13;;;;;;;21.88;63.98;101299.78;4952788;28;20083;-87
2022/06/02 04:59:07;;;;;;;26.17;14.85;;;;;;;22.23;63.20;101321.34;4921940;29;20035;-89
2022/06/02 05:01:51;;;;;;;22.70;14.15;;;;;;;22.19;63.62;101322.56;4954053;29;20048;-92
2022/06/02 05:04:22;;;;;;;24.48;15.20;;;;;;;21.95;64.58;101308.84;4953462;28;20107;-91
2022/06/02 05:07:09;;;;;;;24.55;14.98;;;;;;;22.05;64.41;101313.19;4936505;29;20412;-86
2022/06/02 05:09:56;;;;;;;31.58;17.30;;;;;;;21.99;64.82;101297.91;4951811;28;20121;-89
2022/06/02 05:12:41;;;;;;;31.70;18.30;;;;;;;22.03;65.22;101319.56;4951854;29;20054;-88
2022/06/02 05:15:15;;;;;;;32.95;18.90;;;;;;;21.76;65.97;101320.13;4921143;29;20042;-88
2022/06/02 05:17:53;;;;;;;32.22;18.80;;;;;;;21.84;66.33;101315.03;4936226;29;20031;-87
2022/06/02 05:20:37;;;;;;;27.30;16.67;;;;;;;21.92;66.41;101328.38;4935706;29;20094;-88
2022/06/02 05:23:18;;;;;;;32.28;18.45;;;;;;;22.20;65.53;101326.84;4951423;28;20146;-85
2022/06/02 05:25:49;;;;;;;31.25;18.05;;;;;;;22.15;65.96;101330.88;4953050;28;20035;-86
2022/06/02 05:28:20;;;;;;;31.20;17.63;;;;;;;22.56;64.35;101328.06;4932999;28;20060;-87
2022/06/02 05:31:04;;;;;;;30.13;18.05;;;;;;;22.51;65.78;101326.81;4947037;29;20779;-90
2022/06/02 05:33:48;;;;;;;30.35;17.70;;;;;;;22.75;64.76;101319.38;4951663;28;20050;-85
2022/06/02 05:36:23;;;;;;;29.35;16.83;;;;;;;22.66;64.55;101293.81;4951438;28;20042;-85
2022/06/02 05:39:00;;;;;;;28.77;18.25;;;;;;;22.80;63.05;101326.84;4947044;29;20098;-82
2022/06/02 05:41:41;;;;;;;31.92;17.65;;;;;;;22.87;64.10;101304.28;4944864;29;20361;-83
2022/06/02 05:44:22;;;;;;;27.80;17.15;;;;;;;23.25;62.47;101316.63;4952033;28;20034;-83
2022/06/02 05:47:03;;;;;;;30.15;18.98;;;;;;;23.58;61.99;101323.25;4950422;28;20038;-82
2022/06/02 05:49:47;;;;;;;28.33;18.83;;;;;;;23.60;62.05;101315.22;4952562;28;20122;-87
2022/06/02 05:52:49;;;;;;;29.65;18.08;;;;;;;23.68;62.02;101329.34;4936596;29;20841;-85
2022/06/02 05:55:35;;;;;;;30.05;18.00;;;;;;;23.68;61.91;101323.25;4952566;28;20051;-91
2022/06/02 05:58:19;;;;;;;31.23;18.52;;;;;;;23.68;62.05;101324.06;4940268;29;20066;-86
2022/06/02 06:00:50;;;;;;;47.85;28.83;;;;;;;23.86;60.53;101344.47;4936988;29;20114;-84
2022/06/02 06:03:34;;;;;;;33.13;20.55;;;;;;;23.66;61.55;101331.31;4951276;28;20059;-85
2022/06/02 06:06:23;;;;;;;33.92;21.05;;;;;;;23.70;62.20;101327.44;4952249;29;20089;-89
2022/06/02 06:09:06;;;;;;;28.42;19.00;;;;;;;23.72;62.50;101329.94;4950859;29;20138;-86
2022/06/02 06:12:15;;;;;;;28.58;19.42;;;;;;;23.65;62.58;101316.44;4926354;29;20027;-85
2022/06/02 06:14:43;;;;;;;31.83;20.45;;;;;;;23.90;62.04;101335.31;4950134;29;20042;-89
2022/06/02 06:17:20;;;;;;;34.20;21.88;;;;;;;24.03;61.14;101333.16;4952078;29;20556;-85
2022/06/02 06:20:03;;;;;;;36.28;19.70;;;;;;;24.07;60.12;101323.13;4934803;29;20035;-87
2022/06/02 06:23:05;;;;;;;30.20;19.50;;;;;;;24.16;61.02;101333.66;4950869;29;20489;-86
2022/06/02 06:25:49;;;;;;;36.47;19.80;;;;;;;24.37;60.16;101336.06;4950216;29;20066;-86
2022/06/02 06:28:16;;;;;;;35.35;20.50;;;;;;;24.33;61.26;101328.59;4929367;28;20044;-82
2022/06/02 06:30:53;;;;;;;35.03;22.33;;;;;;;24.14;61.91;101338.25;4934425;29;20046;-87
2022/06/02 06:33:43;;;;;;;35.15;22.75;;;;;;;24.05;61.72;101339.13;4951534;28;20031;-84
2022/06/02 06:36:27;;;;;;;35.75;23.15;;;;;;;24.12;62.47;101342.03;4951254;28;20528;-89
2022/06/02 06:39:23;;;;;;;41.95;23.92;;;;;;;24.21;62.56;101331.41;4949967;28;20055;-87
2022/06/02 06:42:20;;;;;;;36.13;24.35;;;;;;;24.46;61.92;101343.13;4936128;29;20028;-90
2022/06/02 06:45:22;;;;;;;33.00;21.23;;;;;;;24.59;61.75;101334.88;4950373;29;20038;-88
2022/06/02 06:48:06;;;;;;;42.20;22.65;;;;;;;24.66;61.41;101335.91;4936257;29;20512;-88
2022/06/02 06:51:03;;;;;;;36.53;22.65;;;;;;;24.68;61.30;101338.41;4950611;29;20491;-94
2022/06/02 06:53:41;;;;;;;36.72;23.40;;;;;;;24.49;61.64;101319.06;4946662;29;20126;-90
2022/06/02 06:56:24;;;;;;;40.40;26.42;;;;;;;24.77;61.51;101332.22;4919350;29;20031;-87
2022/06/02 06:59:15;;;;;;;35.67;22.77;;;;;;;24.82;61.55;101329.97;4954061;28;20046;-86
2022/06/02 07:01:58;;;;;;;32.15;22.27;;;;;;;24.80;61.25;101313.41;4954741;28;20073;-87
2022/06/02 07:04:32;;;;;;;36.63;22.50;;;;;;;25.03;61.48;101335.81;4955109;29;20024;-87
2022/06/02 07:07:13;;;;;;;31.38;22.67;;;;;;;25.03;60.77;101316.47;4954084;28;20039;-86
2022/06/02 07:09:47;;;;;;;36.75;23.23;;;;;;;25.29;60.94;101343.81;4922654;29;20071;-85
2022/06/02 07:15:15;;;;;;;38.10;22.63;;;;;;;25.62;59.92;101342.22;4940716;29;20042;-88
2022/06/02 07:17:50;;;;;;;33.70;21.88;;;;;;;25.68;59.13;101338.16;4939389;29;20035;-86
2022/06/02 07:20:23;;;;;;;31.88;21.60;;;;;;;25.92;59.21;101348.91;4922231;29;20118;-86
2022/06/02 07:23:01;;;;;;;32.60;21.98;;;;;;;25.82;58.82;101342.06;4937072;29;20035;-86
2022/06/02 07:25:32;;;;;;;31.30;21.25;;;;;;;25.97;58.36;101354.59;4925245;29;20114;-86
2022/06/02 07:28:29;;;;;;;33.38;21.73;;;;;;;26.13;57.84;101350.34;4956692;28;20031;-87
2022/06/02 07:31:09;;;;;;;31.25;21.13;;;;;;;26.01;57.13;101310.03;4940134;29;20043;-91
2022/06/02 07:33:40;;;;;;;33.70;21.35;;;;;;;26.27;57.90;101339.97;4953880;28;20042;-91
2022/06/02 07:36:16;;;;;;;37.10;21.90;;;;;;;26.47;57.35;101353.84;4953604;29;20032;-89
2022/06/02 07:39:12;;;;;;;38.78;21.33;;;;;;;26.46;56.81;101333.59;4953062;28;20600;-91
2022/06/02 07:41:43;;;;;;;34.15;20.50;;;;;;;26.71;56.65;101357.53;4939190;29;20031;-84
2022/06/02 07:44:17;;;;;;;36.88;24.90;;;;;;;26.74;56.22;101351.88;4954656;28;20033;-87
2022/06/02 07:47:13;;;;;;;30.45;21.23;;;;;;;26.77;55.46;101354.25;4955491;28;20027;-87
2022/06/02 07:49:45;;;;;;;35.38;21.23;;;;;;;26.81;55.30;101352.91;4954461;29;20054;-92
2022/06/02 07:52:19;;;;;;;33.08;21.13;;;;;;;26.76;54.98;101336.66;4955033;28;20117;-87
2022/06/02 07:54:57;;;;;;;37.00;19.98;;;;;;;26.69;55.89;101317.88;4938264;29;20035;-83
2022/06/02 07:57:54;;;;;;;29.17;21.00;;;;;;;27.11;55.10;101349.66;4935816;29;20046;-87
2022/06/02 08:00:21;;;;;;;31.10;19.65;;;;;;;27.34;54.60;101338.38;4955770;28;20038;-90
2022/06/02 08:02:46;;;;;;;29.63;17.85;;;;;;;27.45;53.46;101340.69;4936315;29;20039;-86
2022/06/02 08:05:39;;;;;;;26.75;18.55;;;;;;;27.62;53.51;101339.66;4953773;28;20489;-89
2022/06/02 08:08:17;;;;;;;31.85;19.80;;;;;;;27.71;52.83;101338.66;4954253;28;20481;-92
2022/06/02 08:11:01;;;;;;;37.22;20.67;;;;;;;27.85;52.14;101349.63;4938434;29;20405;-87
2022/06/02 08:13:32;;;;;;;27.60;18.17;;;;;;;28.00;51.72;101345.25;4937744;29;20113;-87
2022/06/02 08:16:14;;;;;;;35.80;18.60;;;;;;;28.07;51.22;101334.75;4952520;28;20158;-92
2022/06/02 08:18:55;;;;;;;28.88;20.90;;;;;;;28.17;51.76;101351.34;4952280;29;20519;-86
2022/06/02 08:21:45;;;;;;;34.20;20.00;;;;;;;28.25;50.92;101360.13;4953302;28;20031;-90
2022/06/02 08:24:30;;;;;;;25.63;16.13;;;;;;;28.20;50.67;101357.13;4952547;29;20030;-88
2022/06/02 08:27:14;;;;;;;44.90;31.52;;;;;;;28.21;48.63;101347.31;4952254;29;20043;-88
2022/06/02 08:30:01;;;;;;;21.52;13.40;;;;;;;28.38;48.03;101356.94;4918153;28;20071;-91
2022/06/02 08:32:50;;;;;;;21.65;14.95;;;;;;;28.41;47.84;101342.44;4952633;28;20108;-91
2022/06/02 08:35:21;;;;;;;21.10;12.45;;;;;;;28.63;46.96;101357.63;4951044;28;20093;-88
2022/06/02 08:38:10;;;;;;;22.08;14.77;;;;;;;28.75;47.47;101344.75;4937111;29;20051;-86
2022/06/02 08:41:29;;;;;;;37.03;25.05;;;;;;;28.81;45.63;101352.88;4937531;29;20147;-89
2022/06/02 08:44:10;;;;;;;17.50;12.25;;;;;;;28.56;45.56;101354.00;4933884;28;20126;-89
2022/06/02 08:46:41;;;;;;;18.25;12.75;;;;;;;28.63;45.84;101346.16;4953635;28;20138;-93
2022/06/02 08:49:45;;;;;;;16.67;12.52;;;;;;;28.85;46.97;101356.81;4951811;28;20031;-91
2022/06/02 08:52:47;;;;;;;19.92;12.27;;;;;;;29.16;45.68;101358.63;4950636;28;20122;-92
2022/06/02 08:55:28;;;;;;;17.45;12.18;;;;;;;29.27;45.83;101354.69;4952976;28;20059;-87
2022/06/02 08:58:11;;;;;;;22.92;13.43;;;;;;;29.32;44.96;101347.00;4951757;28;20039;-90
2022/06/02 09:00:58;;;;;;;18.92;13.77;;;;;;;29.49;46.54;101353.03;4954530;28;20037;-93
2022/06/02 09:03:29;;;;;;;17.45;11.32;;;;;;;29.55;43.82;101353.16;4952705;28;20188;-88
2022/06/02 09:06:17;;;;;;;16.33;11.70;;;;;;;29.49;43.63;101347.69;4951485;28;20031;-86
2022/06/02 09:09:05;;;;;;;21.92;12.77;;;;;;;29.62;44.11;101363.91;4949782;28;20043;-90
2022/06/02 09:12:02;;;;;;;19.58;12.90;;;;;;;29.80;45.20;101356.41;4947414;29;20039;-84
2022/06/02 09:14:52;;;;;;;17.77;12.63;;;;;;;29.97;46.42;101352.50;4935831;28;20067;-86
2022/06/02 09:17:28;;;;;;;17.75;12.80;;;;;;;30.05;44.29;101343.59;4951729;29;20031;-90
2022/06/02 09:20:09;;;;;;;19.50;12.93;;;;;;;29.99;44.22;101355.84;4950052;28;20034;-90
2022/06/02 09:23:00;;;;;;;21.80;13.00;;;;;;;30.01;45.00;101361.00;4950310;28;20035;-91
2022/06/02 09:25:55;;;;;;;21.63;13.52;;;;;;;29.87;44.51;101354.63;4932382;29;20039;-87
2022/06/02 09:28:39;;;;;;;18.10;12.77;;;;;;;29.93;45.01;101351.25;4928470;28;20479;-88
2022/06/02 09:31:29;;;;;;;19.35;12.82;;;;;;;29.88;45.03;101358.94;4952598;28;20042;-87
2022/06/02 09:34:16;;;;;;;22.10;12.55;;;;;;;29.73;45.12;101350.13;4950744;28;20031;-88
2022/06/02 09:37:12;;;;;;;17.92;11.98;;;;;;;29.68;43.93;101341.84;4946556;28;20493;-89
2022/06/02 09:40:05;;;;;;;15.93;12.35;;;;;;;29.86;44.60;101350.31;4944406;29;20043;-86
2022/06/02 09:42:54;;;;;;;16.33;11.23;;;;;;;30.06;43.86;101349.75;4949949;28;20516;-87
2022/06/02 09:45:41;;;;;;;19.65;11.13;;;;;;;30.18;43.75;101356.31;4951654;28;20030;-88
2022/06/02 09:48:44;;;;;;;17.63;11.32;;;;;;;30.25;43.01;101349.22;4950250;28;20093;-86
2022/06/02 09:51:36;;;;;;;16.20;10.75;;;;;;;30.33;43.49;101341.09;4896519;28;20507;-88
2022/06/02 09:54:16;;;;;;;17.70;12.10;;;;;;;30.41;44.05;101354.34;4943349;28;20445;-84
2022/06/02 10:00:38;;;;;;;18.30;12.35;;;;;;;30.38;44.31;101327.19;4897850;29;20056;-91
2022/06/02 10:03:22;;;;;;;22.45;13.73;;;;;;;30.72;42.32;101347.94;4951989;28;20078;-86
2022/06/02 10:06:22;;;;;;;16.83;10.85;;;;;;;30.55;41.50;101345.47;4950907;29;20122;-89
2022/06/02 10:09:26;;;;;;;15.32;11.27;;;;;;;30.72;41.68;101343.41;4951263;29;20030;-86
2022/06/02 10:15:20;;;;;;;16.98;11.77;;;;;;;30.87;42.46;101334.50;4951505;29;20106;-89
2022/06/02 10:17:58;;;;;;;17.30;11.10;;;;;;;30.99;42.09;101338.34;4952479;28;20082;-94
2022/06/02 10:20:42;;;;;;;16.33;11.13;;;;;;;31.17;42.20;101321.81;4936149;29;20490;-88
2022/06/02 10:23:19;;;;;;;16.13;11.65;;;;;;;31.15;41.58;101318.53;4948102;29;20043;-85
2022/06/02 10:25:51;;;;;;;17.88;11.40;;;;;;;31.20;41.20;101321.47;4950594;28;20032;-89
2022/06/02 10:28:34;;;;;;;18.13;11.25;;;;;;;31.34;41.63;101320.56;4932908;28;20031;-88
2022/06/02 10:31:38;;;;;;;16.35;11.38;;;;;;;31.40;40.56;101301.91;4949756;28;20050;-91
2022/06/02 10:34:15;;;;;;;15.82;10.40;;;;;;;31.80;39.87;101320.06;4915440;29;20578;-89
2022/06/02 10:36:59;;;;;;;16.92;10.93;;;;;;;31.95;39.68;101310.88;4948313;29;20528;-85
2022/06/02 10:39:41;;;;;;;18.63;10.43;;;;;;;31.80;38.73;101285.28;4941898;29;20051;-88
2022/06/02 10:42:21;;;;;;;14.70;11.18;;;;;;;31.88;39.78;101306.53;4950287;29;20027;-90
2022/06/02 10:45:09;;;;;;;15.68;12.75;;;;;;;31.84;39.56;101311.44;4935306;29;20027;-87
2022/06/02 10:48:00;;;;;;;14.82;9.98;;;;;;;32.07;39.61;101303.13;4950836;29;20058;-86
2022/06/02 10:50:44;;;;;;;14.93;10.13;;;;;;;32.04;38.36;101297.31;4946905;29;20054;-85
2022/06/02 10:53:15;;;;;;;16.67;8.68;;;;;;;32.11;35.59;101301.69;4934525;29;20035;-84
2022/06/02 10:56:14;;;;;;;17.00;8.70;;;;;;;32.28;36.39;101304.00;4947920;28;20042;-87
2022/06/02 10:58:55;;;;;;;12.23;8.98;;;;;;;32.60;36.40;101295.25;4934647;28;20055;-85
2022/06/02 11:01:47;;;;;;;14.85;9.15;;;;;;;32.88;37.07;101284.41;4950365;28;20500;-87
2022/06/02 11:04:27;;;;;;;15.93;9.50;;;;;;;32.99;36.79;101280.25;4931411;29;20031;-85
2022/06/02 11:06:59;;;;;;;16.52;12.88;;;;;;;32.77;38.41;101288.47;4938265;28;20031;-87
2022/06/02 11:10:02;;;;;;;19.63;12.07;;;;;;;32.49;38.06;101280.63;4969741;28;20091;-85
2022/06/02 11:12:52;;;;;;;15.23;10.35;;;;;;;32.58;37.77;101283.09;4915132;29;20035;-86
2022/06/02 11:15:54;;;;;;;14.57;9.90;;;;;;;32.78;37.73;101279.41;4932418;29;20036;-85
2022/06/02 11:18:28;;;;;;;16.55;10.60;;;;;;;32.84;37.53;101260.88;4932828;29;20035;-88
2022/06/02 11:21:09;;;;;;;15.80;9.68;;;;;;;32.91;37.10;101270.56;4932426;29;20028;-88
2022/06/02 11:24:12;;;;;;;14.27;10.17;;;;;;;32.86;36.58;101275.75;4939210;29;20420;-89
2022/06/02 11:26:56;;;;;;;15.57;9.52;;;;;;;32.78;36.96;101271.38;4955236;28;20114;-87
2022/06/02 11:29:59;;;;;;;15.82;8.93;;;;;;;32.89;36.99;101271.81;4952294;28;20054;-87
2022/06/02 11:32:43;;;;;;;13.00;9.15;;;;;;;33.00;36.70;101263.16;4949147;28;20035;-86
2022/06/02 11:35:23;;;;;;;14.55;9.00;;;;;;;32.85;36.46;101254.50;4925964;28;20063;-85
2022/06/02 11:38:15;;;;;;;14.50;10.18;;;;;;;32.78;36.78;101233.88;4930385;29;20402;-86
2022/06/02 11:41:14;;;;;;;14.25;9.57;;;;;;;32.99;36.81;101264.19;4928578;29;20635;-91
2022/06/02 11:44:09;;;;;;;14.35;9.90;;;;;;;32.91;36.79;101269.75;4952503;28;20490;-85
2022/06/02 11:46:53;;;;;;;11.60;9.60;;;;;;;32.77;37.12;101271.59;4930412;29;20035;-86
2022/06/02 11:49:46;;;;;;;17.02;9.60;;;;;;;32.59;37.61;101274.03;4954568;29;20031;-85
2022/06/02 11:52:38;;;;;;;13.80;9.15;;;;;;;32.62;38.02;101273.63;4939841;28;20039;-85
2022/06/02 11:55:42;;;;;;;21.80;13.80;;;;;;;32.62;37.75;101266.41;4969636;28;20146;-87
2022/06/02 11:58:45;;;;;;;16.48;9.57;;;;;;;32.60;37.80;101270.31;4968085;28;20043;-89
2022/06/02 12:01:21;;;;;;;18.60;10.10;;;;;;;32.25;38.50;101252.53;4952443;28;20493;-89
2022/06/02 12:04:02;;;;;;;16.40;9.50;;;;;;;32.23;39.09;101275.16;4962927;28;20066;-83
2022/06/02 12:06:39;;;;;;;16.98;9.32;;;;;;;31.80;39.01;101231.78;4954698;28;20521;-89
2022/06/02 12:09:34;;;;;;;14.40;8.88;;;;;;;31.85;39.04;101262.25;4939059;28;20089;-87
2022/06/02 12:12:17;;;;;;;16.40;9.32;;;;;;;31.79;39.73;101263.06;4921858;29;20067;-89
2022/06/02 12:14:46;;;;;;;12.60;9.27;;;;;;;31.72;39.13;101242.63;4944934;29;20035;-91
2022/06/02 12:17:34;;;;;;;12.15;9.10;;;;;;;31.86;38.71;101255.06;4933029;29;20067;-87
2022/06/02 12:20:09;;;;;;;17.10;9.90;;;;;;;31.81;39.38;101241.47;4955147;28;20404;-89
2022/06/02 12:22:57;;;;;;;16.27;9.60;;;;;;;31.89;39.81;101230.59;4928471;28;20521;-89
2022/06/02 12:25:51;;;;;;;15.35;9.23;;;;;;;31.99;38.37;101247.09;4946893;29;20031;-87
2022/06/02 12:28:47;;;;;;;15.57;8.77;;;;;;;32.24;37.87;101250.84;4931048;29;20620;-93
2022/06/02 12:31:27;;;;;;;20.55;9.32;;;;;;;32.38;37.93;101262.47;4949934;29;20027;-85
2022/06/02 12:34:09;;;;;;;12.70;8.50;;;;;;;32.37;37.84;101249.28;4947608;28;20062;-89
2022/06/02 12:36:59;;;;;;;14.55;8.90;;;;;;;32.61;36.76;101254.03;4969212;28;20568;-87
2022/06/02 12:39:43;;;;;;;12.85;8.32;;;;;;;32.74;37.06;101254.06;4953726;28;20047;-87
2022/06/02 12:42:27;;;;;;;12.98;8.20;;;;;;;32.93;36.77;101254.28;4942994;28;20162;-84